Time;durP1;ratioP1;P1;durP2;ratioP2;P2;SDS_P1;SDS_P2;PMS_P1;PMS_P2;Temp;Humidity;BMP_temperature;BMP_pressure;BME280_temperature;BME280_humidity;BME280_pressure;Samples;Min_cycle;Max_cycle;Signal;HPM_P1;HPM_P2
2021/12/10 00:01:20;;;;;;;0.10;0.00;;;-3.20;99.30;;;;;;20800276;28;20053;-47
2021/12/10 00:11:31;;;;;;;0.20;0.10;;;-3.40;99.20;;;;;;20800495;28;20056;-49
2021/12/10 00:21:34;;;;;;;0.20;0.00;;;-3.50;99.30;;;;;;20800448;28;20445;-48
2021/12/10 00:31:46;;;;;;;0.25;0.00;;;-3.50;99.60;;;;;;20833252;28;20087;-47
2021/12/10 00:41:49;;;;;;;0.15;0.05;;;-3.90;99.60;;;;;;20813898;28;20103;-47
2021/12/10 00:51:53;;;;;;;0.35;0.10;;;-4.30;99.90;;;;;;20812790;28;20448;-46
2021/12/10 01:01:56;;;;;;;0.00;0.00;;;-4.40;99.90;;;;;;20813160;28;20041;-46
2021/12/10 01:12:08;;;;;;;0.10;0.00;;;-4.30;99.80;;;;;;20796359;28;20387;-48
2021/12/10 01:32:40;;;;;;;0.10;0.00;;;-4.30;99.90;;;;;;20809629;28;20410;-50
2021/12/10 01:42:46;;;;;;;0.00;0.00;;;-4.40;99.80;;;;;;20726129;28;20071;-46
2021/12/10 01:52:53;;;;;;;0.10;0.00;;;-4.00;98.40;;;;;;20726323;28;20038;-47
2021/12/10 02:02:58;;;;;;;0.10;0.00;;;-4.10;98.40;;;;;;20725447;28;20041;-47
2021/12/10 02:13:01;;;;;;;0.03;0.00;;;-4.50;99.00;;;;;;20724880;28;20065;-49
2021/12/10 02:23:06;;;;;;;0.10;0.00;;;-5.10;99.90;;;;;;20723983;28;20038;-47
2021/12/10 02:33:11;;;;;;;0.00;0.00;;;-5.60;99.90;;;;;;20727752;28;20046;-47
2021/12/10 02:43:15;;;;;;;0.00;0.00;;;-5.70;99.90;;;;;;20804204;28;20045;-46
2021/12/10 02:53:26;;;;;;;0.00;0.00;;;-5.60;99.90;;;;;;20803227;28;20037;-46
2021/12/10 03:03:30;;;;;;;0.00;0.00;;;-5.90;99.90;;;;;;20803269;28;20347;-48
2021/12/10 03:13:33;;;;;;;0.10;0.00;;;-6.10;99.90;;;;;;20779418;28;20030;-47
2021/12/10 03:23:42;;;;;;;0.00;0.00;;;-6.00;99.90;;;;;;20720483;28;20041;-47
2021/12/10 03:33:46;;;;;;;0.00;0.00;;;-5.90;99.90;;;;;;20729717;28;20041;-48
2021/12/10 03:43:51;;;;;;;0.30;0.00;;;-5.90;99.90;;;;;;20785453;28;20045;-47
2021/12/10 03:53:55;;;;;;;0.03;0.00;;;-6.00;99.90;;;;;;20800502;28;20063;-48
2021/12/10 04:04:00;;;;;;;0.50;0.10;;;-5.90;99.90;;;;;;20812320;28;20485;-47
2021/12/10 04:14:03;;;;;;;0.00;0.00;;;-5.60;99.90;;;;;;20817014;28;20042;-47
2021/12/10 04:24:12;;;;;;;0.50;0.00;;;-5.50;99.90;;;;;;20815180;28;20111;-46
2021/12/10 04:34:15;;;;;;;0.25;0.10;;;-5.30;99.90;;;;;;20813987;28;20457;-46
2021/12/10 04:44:18;;;;;;;0.32;0.05;;;-5.10;99.90;;;;;;20813718;28;20064;-48
2021/12/10 04:54:23;;;;;;;0.00;0.00;;;-5.10;99.90;;;;;;20813044;28;20041;-47
2021/12/10 05:04:28;;;;;;;0.20;0.00;;;-5.00;99.90;;;;;;20845139;28;20041;-47
2021/12/10 05:14:33;;;;;;;0.00;0.00;;;-5.00;99.90;;;;;;20780491;28;20038;-46
2021/12/10 05:24:36;;;;;;;0.08;0.00;;;-4.80;99.90;;;;;;20712824;28;20049;-49
2021/12/10 05:34:40;;;;;;;0.15;0.00;;;-4.50;99.90;;;;;;20742602;28;20049;-48
2021/12/10 05:44:43;;;;;;;0.38;0.00;;;-4.30;99.90;;;;;;20809519;28;20055;-47
2021/12/10 05:54:46;;;;;;;0.00;0.00;;;-4.20;99.90;;;;;;20809993;28;20029;-49
2021/12/10 06:04:49;;;;;;;0.10;0.00;;;-4.50;99.90;;;;;;20808029;28;20042;-47
2021/12/10 06:14:52;;;;;;;0.28;0.00;;;-4.80;99.90;;;;;;20807171;28;20095;-48
2021/12/10 06:24:54;;;;;;;0.38;0.00;;;-4.90;99.90;;;;;;20806263;28;20486;-48
2021/12/10 06:34:57;;;;;;;1.30;0.20;;;-5.10;99.90;;;;;;20805096;28;20049;-47
2021/12/10 06:45:04;;;;;;;0.90;0.10;;;-5.10;99.90;;;;;;20805554;28;20079;-47
2021/12/10 06:55:07;;;;;;;0.40;0.10;;;-5.00;99.90;;;;;;20804069;28;20305;-47
2021/12/10 07:05:10;;;;;;;0.30;0.10;;;-5.00;99.90;;;;;;20803593;28;20103;-47
2021/12/10 07:15:15;;;;;;;0.77;0.28;;;-4.70;99.90;;;;;;20767386;28;20034;-47
2021/12/10 07:25:20;;;;;;;0.93;0.10;;;-4.50;99.90;;;;;;20720733;28;20395;-47
2021/12/10 07:35:24;;;;;;;0.70;0.30;;;-4.40;99.90;;;;;;20740729;28;20058;-48
2021/12/10 07:45:27;;;;;;;0.40;0.20;;;-4.10;99.90;;;;;;20801311;28;20075;-48
2021/12/10 07:55:33;;;;;;;0.43;0.10;;;-3.80;99.90;;;;;;20802102;28;20517;-48
2021/12/10 08:05:38;;;;;;;2.05;0.20;;;-3.70;99.90;;;;;;20801108;28;20037;-47
2021/12/10 08:15:41;;;;;;;0.25;0.20;;;-3.60;99.90;;;;;;20799962;28;20045;-49
2021/12/10 08:25:44;;;;;;;0.77;0.20;;;-2.50;99.90;;;;;;20799234;28;20034;-47
2021/12/10 08:35:51;;;;;;;0.60;0.20;;;-1.20;99.90;;;;;;20798695;28;20041;-52
2021/12/10 08:45:54;;;;;;;0.38;0.10;;;-0.40;99.90;;;;;;20803713;28;20406;-51
2021/12/10 08:55:58;;;;;;;0.50;0.20;;;0.30;99.90;;;;;;20813543;28;20494;-52
2021/12/10 09:06:03;;;;;;;0.50;0.20;;;0.00;99.90;;;;;;20812982;28;20045;-49
2021/12/10 09:16:18;;;;;;;1.00;0.30;;;0.00;99.90;;;;;;20767336;28;20438;-50
2021/12/10 09:26:25;;;;;;;0.35;0.20;;;0.00;99.90;;;;;;20729109;28;20037;-49
2021/12/10 09:36:28;;;;;;;0.45;0.20;;;0.40;99.90;;;;;;20757497;28;20097;-48
2021/12/10 09:46:30;;;;;;;0.82;0.20;;;0.90;99.90;;;;;;20808793;28;20029;-49
2021/12/10 09:56:33;;;;;;;0.45;0.20;;;1.00;99.90;;;;;;20807217;28;20029;-52
2021/12/10 10:06:42;;;;;;;0.65;0.20;;;1.10;99.90;;;;;;20808950;28;20335;-50
2021/12/10 10:16:45;;;;;;;0.40;0.20;;;1.30;99.90;;;;;;20805227;28;20060;-50
2021/12/10 10:26:56;;;;;;;0.40;0.20;;;1.60;99.90;;;;;;20804679;28;20053;-51
2021/12/10 10:36:58;;;;;;;0.40;0.10;;;1.80;99.90;;;;;;20804652;28;20571;-48
2021/12/10 10:47:01;;;;;;;0.95;0.40;;;1.60;99.90;;;;;;20803550;28;20695;-48
2021/12/10 10:57:24;;;;;;;1.63;0.70;;;1.30;99.90;;;;;;20804177;28;20045;-48
2021/12/10 11:07:28;;;;;;;1.02;0.68;;;1.00;99.90;;;;;;20801836;28;20087;-48
2021/12/10 11:17:36;;;;;;;0.85;0.60;;;1.10;99.90;;;;;;20746653;28;20060;-49
2021/12/10 11:27:42;;;;;;;0.77;0.60;;;1.20;99.90;;;;;;20721372;28;20486;-50
2021/12/10 11:37:50;;;;;;;0.82;0.40;;;0.90;99.90;;;;;;20759864;28;20127;-48
2021/12/10 11:47:54;;;;;;;0.75;0.45;;;0.60;99.90;;;;;;20801225;28;20033;-49
2021/12/10 11:57:57;;;;;;;1.00;0.50;;;0.80;99.90;;;;;;20800356;28;20037;-52
2021/12/10 12:08:04;;;;;;;0.80;0.30;;;1.20;99.90;;;;;;20800712;28;20037;-48
2021/12/10 12:18:14;;;;;;;0.17;0.10;;;1.50;99.90;;;;;;20800802;28;20449;-51
2021/12/10 12:28:19;;;;;;;1.30;0.20;;;1.80;99.90;;;;;;20815144;28;20060;-53
2021/12/10 12:38:29;;;;;;;2.05;0.40;;;1.80;99.90;;;;;;20578463;28;20055;-51
2021/12/10 12:48:33;;;;;;;1.55;0.20;;;1.20;99.90;;;;;;20562153;28;20042;-52
2021/12/10 12:58:41;;;;;;;1.48;0.38;;;0.30;99.90;;;;;;20560414;28;20496;-54
2021/12/10 13:08:54;;;;;;;0.52;0.30;;;-0.10;99.90;;;;;;20589976;28;20045;-49
2021/12/10 13:18:58;;;;;;;1.23;0.50;;;-0.10;99.90;;;;;;20762356;28;20095;-49
2021/12/10 13:29:00;;;;;;;2.15;0.63;;;-0.10;99.90;;;;;;20729117;28;20112;-51
2021/12/10 13:39:08;;;;;;;1.00;0.50;;;-0.30;99.90;;;;;;20778220;28;20477;-50
2021/12/10 13:49:10;;;;;;;1.35;0.47;;;-0.70;99.90;;;;;;20808936;28;20091;-48
2021/12/10 13:59:13;;;;;;;1.10;0.57;;;-0.80;99.90;;;;;;20807510;28;20080;-47
2021/12/10 14:09:50;;;;;;;1.17;0.60;;;-0.70;99.90;;;;;;20807302;28;20033;-49
2021/12/10 14:19:55;;;;;;;1.27;0.60;;;-0.70;99.90;;;;;;20822700;28;20033;-49
2021/12/10 14:30:23;;;;;;;0.65;0.30;;;-0.80;99.90;;;;;;20805190;28;20037;-49
2021/12/10 14:40:30;;;;;;;0.40;0.10;;;-1.10;99.90;;;;;;20803918;28;20479;-50
2021/12/10 14:50:35;;;;;;;0.08;0.08;;;-1.30;99.90;;;;;;20803807;28;20038;-50
2021/12/10 15:00:44;;;;;;;0.52;0.17;;;-1.40;99.90;;;;;;20803235;28;20026;-50
2021/12/10 15:10:50;;;;;;;0.88;0.10;;;-1.60;99.90;;;;;;20802193;28;20068;-49
2021/12/10 15:21:51;;;;;;;0.20;0.15;;;-1.90;99.90;;;;;;20720067;28;20034;-49
2021/12/10 15:32:04;;;;;;;0.68;0.10;;;-2.10;99.90;;;;;;20550154;28;20046;-51
2021/12/10 15:42:08;;;;;;;0.30;0.10;;;-2.20;99.90;;;;;;20639178;28;20128;-50
2021/12/10 15:52:15;;;;;;;0.57;0.08;;;-2.50;99.90;;;;;;20630376;28;20120;-48
2021/12/10 16:02:21;;;;;;;0.35;0.10;;;-2.80;99.90;;;;;;20808187;28;20079;-51
2021/12/10 16:12:24;;;;;;;0.10;0.10;;;-3.00;99.90;;;;;;20803413;28;20096;-49
2021/12/10 16:22:29;;;;;;;0.25;0.10;;;-3.20;99.90;;;;;;20734357;28;20461;-50
2021/12/10 16:32:37;;;;;;;0.25;0.00;;;-3.40;99.90;;;;;;20733561;28;20046;-48
2021/12/10 16:42:50;;;;;;;0.00;0.00;;;-3.40;99.90;;;;;;20812424;28;20045;-48
2021/12/10 16:52:53;;;;;;;0.15;0.08;;;-3.70;99.90;;;;;;20813850;28;20042;-48
2021/12/10 17:02:57;;;;;;;0.08;0.00;;;-3.80;99.90;;;;;;20812587;28;20541;-49
2021/12/10 17:13:08;;;;;;;0.32;0.00;;;-3.80;99.90;;;;;;20828839;28;20029;-49
2021/12/10 17:23:15;;;;;;;0.03;0.00;;;-3.60;99.90;;;;;;20812255;28;20112;-48
2021/12/10 17:33:31;;;;;;;0.40;0.20;;;-3.40;99.90;;;;;;20809686;28;20045;-50
2021/12/10 17:43:43;;;;;;;0.47;0.10;;;-3.30;99.90;;;;;;20794274;28;20120;-50
2021/12/10 17:53:50;;;;;;;5.20;0.10;;;-3.20;99.90;;;;;;20808358;28;20049;-49
2021/12/10 18:03:57;;;;;;;0.65;0.10;;;-3.00;99.90;;;;;;20808242;28;20070;-49
2021/12/10 18:14:01;;;;;;;0.10;0.00;;;-2.90;99.90;;;;;;20807119;28;20095;-50
2021/12/10 18:24:08;;;;;;;0.80;0.20;;;-2.90;99.90;;;;;;20789397;28;20064;-52
2021/12/10 18:34:16;;;;;;;1.80;0.10;;;-2.90;99.90;;;;;;20805921;28;20049;-48
2021/12/10 18:44:23;;;;;;;0.28;0.10;;;-2.90;99.90;;;;;;20804733;28;20037;-49
2021/12/10 18:54:34;;;;;;;0.35;0.10;;;-2.90;99.90;;;;;;20804166;28;20041;-52
2021/12/10 19:04:44;;;;;;;0.30;0.10;;;-2.80;99.90;;;;;;20803808;28;20041;-48
2021/12/10 19:14:51;;;;;;;1.20;0.20;;;-2.80;99.90;;;;;;20769622;28;20042;-50
2021/12/10 19:24:58;;;;;;;1.02;0.30;;;-2.90;99.90;;;;;;20704732;28;20796;-51
2021/12/10 19:35:13;;;;;;;0.73;0.28;;;-2.90;99.90;;;;;;20736857;28;20068;-49
2021/12/10 19:45:22;;;;;;;0.30;0.20;;;-2.80;99.90;;;;;;20802518;28;20059;-48
2021/12/10 19:55:49;;;;;;;0.70;0.30;;;-2.70;99.90;;;;;;20800902;28;20037;-49
2021/12/10 20:05:57;;;;;;;0.60;0.20;;;-2.80;99.90;;;;;;20800612;28;20556;-50
2021/12/10 20:16:06;;;;;;;1.05;0.28;;;-2.80;99.90;;;;;;20799909;28;20029;-49
2021/12/10 20:26:21;;;;;;;0.63;0.30;;;-3.00;99.90;;;;;;20799535;28;20041;-49
2021/12/10 20:37:07;;;;;;;0.75;0.30;;;-3.20;99.90;;;;;;20782715;28;20072;-49
2021/12/10 20:47:14;;;;;;;0.55;0.20;;;-3.20;99.90;;;;;;20829383;28;20091;-48
2021/12/10 20:57:31;;;;;;;0.20;0.10;;;-3.20;99.90;;;;;;20813340;28;20037;-49
2021/12/10 21:07:39;;;;;;;0.88;0.30;;;-3.10;99.90;;;;;;20781734;28;20034;-48
2021/12/10 21:17:57;;;;;;;0.57;0.25;;;-3.20;99.90;;;;;;20773931;28;20572;-50
2021/12/10 21:28:17;;;;;;;0.50;0.30;;;-3.10;99.90;;;;;;20810418;28;20091;-48
2021/12/10 21:38:28;;;;;;;0.60;0.30;;;-3.10;99.90;;;;;;20809815;28;20045;-49
2021/12/10 21:48:34;;;;;;;0.80;0.40;;;-3.20;99.90;;;;;;20809530;28;20121;-48
2021/12/10 21:58:56;;;;;;;0.52;0.20;;;-3.30;99.90;;;;;;20808283;28;20402;-48
2021/12/10 22:09:21;;;;;;;0.57;0.28;;;-3.40;99.90;;;;;;20807744;28;20099;-51
2021/12/10 22:19:31;;;;;;;0.65;0.40;;;-3.50;99.90;;;;;;20671480;28;20046;-49
2021/12/10 22:29:38;;;;;;;0.50;0.22;;;-3.30;99.90;;;;;;20659542;28;20038;-48
2021/12/10 22:39:53;;;;;;;0.10;0.10;;;-3.20;99.90;;;;;;20768629;28;20045;-49
2021/12/10 22:50:01;;;;;;;0.65;0.20;;;-3.20;99.90;;;;;;20805400;28;20045;-48
2021/12/10 23:00:47;;;;;;;0.68;0.30;;;-3.00;99.90;;;;;;20803860;28;20109;-48
2021/12/10 23:10:50;;;;;;;0.22;0.10;;;-2.80;99.90;;;;;;20803150;28;20033;-48
2021/12/10 23:21:11;;;;;;;0.20;0.20;;;-2.80;99.90;;;;;;20802278;28;20099;-48
2021/12/10 23:31:17;;;;;;;0.65;0.20;;;-2.70;99.90;;;;;;20801744;28;20034;-49
2021/12/10 23:41:22;;;;;;;0.57;0.20;;;-2.50;99.90;;;;;;20801290;28;20560;-48
2021/12/10 23:51:33;;;;;;;0.43;0.17;;;-2.60;99.90;;;;;;20801783;28;20037;-48
